Terminal Aerodrome Forecast
Issued by NWS

Home | Current Version | Previous Version | Text Only | Print | Product List | Glossary On
Versions: 1 2 3 4 5 6 7 8 9 10 11 12 13 14 15 16 17 18 19
891
FTUS43 KLSX 222329
TAFUIN
TAF
KUIN 222329Z 2300/2324 24007KT 6SM -SHRA VCTS BKN070CB
      TEMPO 2300/2302 3SM -TSRA BKN040CB
     FM230200 18005KT 5SM -SHRA BKN060
     FM230600 17005KT 6SM -SHRA BKN050
     FM231300 21005KT P6SM VCSH OVC015
     FM231800 29006KT P6SM VCTS OVC025CB=

USA.gov is the U.S. government's official web portal to all federal, state and local government web resources and services.